createdAt,value
2019-03-06T00:00:01.526Z,1001.33
2019-03-06T00:01:01.404Z,1001.33
2019-03-06T00:02:01.564Z,1001.34
2019-03-06T00:03:01.439Z,1001.37
2019-03-06T00:04:01.330Z,1001.32
2019-03-06T00:05:01.255Z,1001.40
2019-03-06T00:06:01.488Z,1001.40
2019-03-06T00:07:01.199Z,1001.41
2019-03-06T00:08:01.394Z,1001.36
2019-03-06T00:09:01.134Z,1001.35
2019-03-06T00:10:01.213Z,1001.36
2019-03-06T00:11:01.073Z,1001.33
2019-03-06T00:12:01.212Z,1001.39
2019-03-06T00:13:01.018Z,1001.35
2019-03-06T00:14:01.106Z,1001.37
2019-03-06T00:15:00.963Z,1001.36
2019-03-06T00:16:01.020Z,1001.35
2019-03-06T00:17:00.893Z,1001.34
2019-03-06T00:18:00.918Z,1001.31
2019-03-06T00:19:00.838Z,1001.32
2019-03-06T00:20:00.836Z,1001.31
2019-03-06T00:21:00.880Z,1001.33
2019-03-06T00:22:00.866Z,1001.29
2019-03-06T00:23:02.113Z,1001.25
2019-03-06T00:24:00.883Z,1001.29
2019-03-06T00:25:00.674Z,1001.27
2019-03-06T00:26:00.677Z,1001.20
2019-03-06T00:27:00.866Z,1001.21
2019-03-06T00:28:00.699Z,1001.17
2019-03-06T00:29:00.572Z,1001.12
2019-03-06T00:30:00.666Z,1001.08
2019-03-06T00:31:00.520Z,1001.15
2019-03-06T00:32:00.510Z,1001.13
2019-03-06T00:33:00.414Z,1001.14
2019-03-06T00:34:00.436Z,1001.11
2019-03-06T00:35:00.402Z,1001.13
2019-03-06T00:36:00.451Z,1001.10
2019-03-06T00:37:00.296Z,1001.05
2019-03-06T00:38:00.368Z,1001.07
2019-03-06T00:39:00.242Z,1001.03
2019-03-06T00:40:00.360Z,1001.04
2019-03-06T00:41:00.180Z,1001.08
2019-03-06T00:42:00.198Z,1001.07
2019-03-06T00:43:00.193Z,1001.08
2019-03-06T00:44:00.089Z,1001.08
2019-03-06T00:45:00.061Z,1001.08
2019-03-06T00:46:00.037Z,1001.07
2019-03-06T00:47:00.102Z,1001.05
2019-03-06T00:48:00.019Z,1001.05
2019-03-06T00:49:00.045Z,1001.02
2019-03-06T00:49:59.921Z,1001.05
2019-03-06T00:51:00.097Z,1001.09
2019-03-06T00:51:59.848Z,1001.08
2019-03-06T00:52:59.944Z,1001.07
2019-03-06T00:53:59.806Z,1001.07
2019-03-06T00:54:59.846Z,1001.07
2019-03-06T00:55:59.728Z,1001.13
2019-03-06T00:56:59.697Z,1001.12
2019-03-06T00:57:59.792Z,1001.15
2019-03-06T00:58:59.657Z,1001.18
2019-03-06T00:59:59.677Z,1001.18
2019-03-06T01:00:59.572Z,1001.18
2019-03-06T01:01:59.591Z,1001.11
2019-03-06T01:02:59.554Z,1001.14
2019-03-06T01:04:01.174Z,1001.16
2019-03-06T01:04:59.492Z,1001.13
2019-03-06T01:05:59.448Z,1001.14
2019-03-06T01:06:59.404Z,1001.18
2019-03-06T01:07:59.400Z,1001.15
2019-03-06T01:08:59.441Z,1001.13
2019-03-06T01:09:59.458Z,1001.11
2019-03-06T01:10:59.278Z,1001.14
2019-03-06T01:11:59.270Z,1001.09
2019-03-06T01:12:59.230Z,1001.07
2019-03-06T01:13:59.255Z,1001.11
2019-03-06T01:14:59.163Z,1001.07
2019-03-06T01:15:59.166Z,1001.07
2019-03-06T01:16:59.132Z,1001.03
2019-03-06T01:17:59.186Z,1001.05
2019-03-06T01:18:59.082Z,1001.01
2019-03-06T01:19:59.167Z,1000.97
2019-03-06T01:20:58.984Z,1000.94
2019-03-06T01:21:59.000Z,1000.95
2019-03-06T01:22:58.926Z,1000.92
2019-03-06T01:23:59.020Z,1000.89
2019-03-06T01:24:58.886Z,1000.87
2019-03-06T01:25:59.067Z,1000.86
2019-03-06T01:26:58.827Z,1000.83
2019-03-06T01:27:58.855Z,1000.83
2019-03-06T01:28:58.744Z,1000.83
2019-03-06T01:29:58.902Z,1000.77
2019-03-06T01:30:58.720Z,1000.77
2019-03-06T01:31:58.793Z,1000.73
2019-03-06T01:32:58.653Z,1000.74
2019-03-06T01:33:58.674Z,1000.75
2019-03-06T01:34:58.580Z,1000.69
2019-03-06T01:35:58.541Z,1000.72
2019-03-06T01:36:58.497Z,1000.72
2019-03-06T01:37:58.578Z,1000.69
2019-03-06T01:38:58.456Z,1000.70
2019-03-06T01:39:58.517Z,1000.68
2019-03-06T01:40:58.415Z,1000.73
2019-03-06T01:41:58.463Z,1000.67
2019-03-06T01:42:58.342Z,1000.70
2019-03-06T01:43:58.441Z,1000.64
2019-03-06T01:44:58.265Z,1000.64
2019-03-06T01:45:58.369Z,1000.66
2019-03-06T01:46:58.204Z,1000.58
2019-03-06T01:47:58.247Z,1000.67
2019-03-06T01:48:58.143Z,1000.63
2019-03-06T01:49:58.196Z,1000.67
2019-03-06T01:50:58.126Z,1000.65
2019-03-06T01:51:58.190Z,1000.64
2019-03-06T01:52:58.057Z,1000.62
2019-03-06T01:53:58.082Z,1000.58
2019-03-06T01:54:57.997Z,1000.58
2019-03-06T01:55:58.032Z,1000.54
2019-03-06T01:56:57.940Z,1000.53
2019-03-06T01:57:58.025Z,1000.52
2019-03-06T01:58:57.852Z,1000.48
2019-03-06T01:59:57.969Z,1000.49
2019-03-06T02:00:57.803Z,1000.53
2019-03-06T02:01:57.831Z,1000.49
2019-03-06T02:02:57.734Z,1000.50
2019-03-06T02:03:57.743Z,1000.51
2019-03-06T02:04:57.691Z,1000.48
2019-03-06T02:05:57.758Z,1000.49
2019-03-06T02:06:57.590Z,1000.39
2019-03-06T02:07:57.679Z,1000.39
2019-03-06T02:08:57.532Z,1000.33
2019-03-06T02:09:57.586Z,1000.29
2019-03-06T02:10:57.515Z,1000.30
2019-03-06T02:11:57.602Z,1000.30
2019-03-06T02:12:57.416Z,1000.31
2019-03-06T02:13:57.519Z,1000.33
2019-03-06T02:14:57.366Z,1000.36
2019-03-06T02:15:57.420Z,1000.33
2019-03-06T02:16:57.284Z,1000.28
2019-03-06T02:17:57.457Z,1000.27
2019-03-06T02:18:57.259Z,1000.24
2019-03-06T02:19:57.432Z,1000.31
2019-03-06T02:20:57.179Z,1000.29
2019-03-06T02:21:57.252Z,1000.22
2019-03-06T02:22:57.129Z,1000.28
2019-03-06T02:23:57.084Z,1000.26
2019-03-06T02:24:57.096Z,1000.23
2019-03-06T02:25:57.247Z,1000.17
2019-03-06T02:26:56.991Z,1000.14
2019-03-06T02:27:57.088Z,1000.12
2019-03-06T02:28:56.925Z,1000.08
2019-03-06T02:29:57.000Z,1000.03
2019-03-06T02:30:56.869Z,1000.03
2019-03-06T02:31:57.035Z,1000.01
2019-03-06T02:32:56.805Z,999.96
2019-03-06T02:33:56.940Z,999.93
2019-03-06T02:34:56.852Z,999.93
2019-03-06T02:35:56.839Z,999.86
2019-03-06T02:36:56.683Z,999.87
2019-03-06T02:37:56.758Z,999.87
2019-03-06T02:38:56.635Z,999.88
2019-03-06T02:39:56.805Z,999.90
2019-03-06T02:40:56.650Z,999.84
2019-03-06T02:41:56.547Z,999.87
2019-03-06T02:42:56.676Z,999.83
2019-03-06T02:43:56.477Z,999.88
2019-03-06T02:44:56.617Z,999.87
2019-03-06T02:45:56.464Z,999.83
2019-03-06T02:46:56.503Z,999.83
2019-03-06T02:47:56.364Z,999.81
2019-03-06T02:48:56.443Z,999.80
2019-03-06T02:49:56.350Z,999.77
2019-03-06T02:50:56.472Z,999.78
2019-03-06T02:51:59.597Z,999.74
2019-03-06T02:52:56.394Z,999.71
2019-03-06T02:53:56.225Z,999.70
2019-03-06T02:54:56.154Z,999.67
2019-03-06T02:55:56.219Z,999.66
2019-03-06T02:56:56.115Z,999.70
2019-03-06T02:57:56.127Z,999.63
2019-03-06T02:58:56.030Z,999.61
2019-03-06T02:59:56.141Z,999.56
2019-03-06T03:00:55.985Z,999.59
2019-03-06T03:01:56.052Z,999.57
2019-03-06T03:02:55.954Z,999.54
2019-03-06T03:03:56.048Z,999.54
2019-03-06T03:04:55.862Z,999.51
2019-03-06T03:05:55.967Z,999.47
2019-03-06T03:06:55.836Z,999.50
2019-03-06T03:07:55.970Z,999.49
2019-03-06T03:08:55.743Z,999.49
2019-03-06T03:09:55.707Z,999.50
2019-03-06T03:10:55.707Z,999.44
2019-03-06T03:11:55.665Z,999.44
2019-03-06T03:12:55.800Z,999.47
2019-03-06T03:13:55.591Z,999.45
2019-03-06T03:14:55.745Z,999.42
2019-03-06T03:15:55.525Z,999.43
2019-03-06T03:16:55.678Z,999.40
2019-03-06T03:17:55.502Z,999.36
2019-03-06T03:18:55.642Z,999.38
2019-03-06T03:19:56.227Z,999.32
2019-03-06T03:20:55.559Z,999.34
2019-03-06T03:21:55.347Z,999.32
2019-03-06T03:22:55.364Z,999.26
2019-03-06T03:23:55.298Z,999.21
2019-03-06T03:24:55.505Z,999.18
2019-03-06T03:25:55.225Z,999.15
2019-03-06T03:26:55.372Z,999.16
2019-03-06T03:27:55.166Z,999.10
2019-03-06T03:28:55.287Z,999.07
2019-03-06T03:29:55.119Z,999.06
2019-03-06T03:30:55.206Z,999.01
2019-03-06T03:31:55.055Z,998.98
2019-03-06T03:32:55.249Z,999.01
2019-03-06T03:33:54.992Z,999.00
2019-03-06T03:34:55.289Z,998.99
2019-03-06T03:35:54.927Z,998.99
2019-03-06T03:36:55.081Z,999.02
2019-03-06T03:37:54.869Z,999.01
2019-03-06T03:38:55.075Z,999.00
2019-03-06T03:39:54.975Z,999.02
2019-03-06T03:40:54.874Z,999.04
2019-03-06T03:41:54.773Z,999.04
2019-03-06T03:42:54.789Z,999.02
2019-03-06T03:43:54.696Z,999.04
2019-03-06T03:44:54.646Z,999.00
2019-03-06T03:45:54.622Z,998.96
2019-03-06T03:46:54.737Z,998.99
2019-03-06T03:47:54.575Z,998.99
2019-03-06T03:48:54.647Z,998.93
2019-03-06T03:49:54.491Z,998.89
2019-03-06T03:50:54.534Z,998.89
2019-03-06T03:51:54.436Z,998.88
2019-03-06T03:52:54.419Z,998.85
2019-03-06T03:53:54.447Z,998.81
2019-03-06T03:54:54.402Z,998.81
2019-03-06T03:55:54.487Z,998.83
2019-03-06T03:56:54.292Z,998.78
2019-03-06T03:57:55.395Z,998.75
2019-03-06T03:58:54.247Z,998.74
2019-03-06T03:59:55.804Z,998.73
2019-03-06T04:00:54.175Z,998.72
2019-03-06T04:01:54.188Z,998.74
2019-03-06T04:02:54.123Z,998.70
2019-03-06T04:03:54.218Z,998.70
2019-03-06T04:04:54.056Z,998.73
2019-03-06T04:05:54.200Z,998.71
2019-03-06T04:06:53.985Z,998.74
2019-03-06T04:07:54.023Z,998.73
2019-03-06T04:08:53.934Z,998.74
2019-03-06T04:09:53.988Z,998.74
2019-03-06T04:10:53.918Z,998.69
2019-03-06T04:11:53.944Z,998.72
2019-03-06T04:12:53.906Z,998.65
2019-03-06T04:13:53.869Z,998.69
2019-03-06T04:14:53.746Z,998.73
2019-03-06T04:15:53.793Z,998.66
2019-03-06T04:16:53.684Z,998.72
2019-03-06T04:17:53.811Z,998.71
2019-03-06T04:18:53.629Z,998.70
2019-03-06T04:19:53.624Z,998.72
2019-03-06T04:20:53.595Z,998.71
2019-03-06T04:21:53.612Z,998.71
2019-03-06T04:22:53.535Z,998.73
2019-03-06T04:23:53.523Z,998.69
2019-03-06T04:24:53.478Z,998.77
2019-03-06T04:25:53.578Z,998.73
2019-03-06T04:26:53.466Z,998.72
2019-03-06T04:27:53.444Z,998.70
2019-03-06T04:28:53.374Z,998.65
2019-03-06T04:29:53.357Z,998.63
2019-03-06T04:30:53.279Z,998.65
2019-03-06T04:31:53.383Z,998.63
2019-03-06T04:32:53.192Z,998.66
2019-03-06T04:33:53.296Z,998.72
2019-03-06T04:34:53.157Z,998.71
2019-03-06T04:35:53.207Z,998.72
2019-03-06T04:36:53.071Z,998.71
2019-03-06T04:37:53.057Z,998.75
2019-03-06T04:38:54.149Z,998.80
2019-03-06T04:39:53.057Z,998.75
2019-03-06T04:41:28.921Z,998.73
2019-03-06T04:41:52.961Z,998.72
2019-03-06T04:42:52.955Z,998.66
2019-03-06T04:44:14.130Z,998.60
2019-03-06T04:44:52.892Z,998.61
2019-03-06T05:57:41.185Z,997.42
2019-03-06T05:58:41.277Z,997.41
2019-03-06T06:00:35.880Z,997.35
2019-03-06T06:01:35.783Z,997.27
2019-03-06T06:02:35.888Z,997.28
2019-03-06T06:03:35.710Z,997.26
2019-03-06T06:04:35.920Z,997.29
2019-03-06T06:05:35.665Z,997.26
2019-03-06T06:06:35.806Z,997.20
2019-03-06T06:07:35.603Z,997.20
2019-03-06T06:08:35.701Z,997.17
2019-03-06T06:09:35.534Z,997.07
2019-03-06T06:10:35.611Z,997.06
2019-03-06T06:11:35.476Z,997.10
2019-03-06T06:12:35.458Z,997.10
2019-03-06T06:13:35.431Z,997.08
2019-03-06T06:14:35.544Z,997.06
2019-03-06T06:15:35.391Z,997.05
2019-03-06T06:16:35.470Z,997.04
2019-03-06T06:17:35.293Z,996.99
2019-03-06T06:18:35.364Z,996.98
2019-03-06T06:19:35.225Z,996.97
2019-03-06T06:20:35.401Z,997.01
2019-03-06T06:21:35.169Z,997.05
2019-03-06T06:22:35.297Z,997.03
2019-03-06T06:23:35.112Z,997.01
2019-03-06T06:24:35.198Z,997.05
2019-03-06T06:25:35.065Z,997.02
2019-03-06T06:26:35.105Z,997.04
2019-03-06T06:27:35.251Z,997.05
2019-03-06T06:28:35.128Z,997.06
2019-03-06T06:29:34.915Z,997.05
2019-03-06T06:30:35.045Z,997.02
2019-03-06T06:31:34.860Z,997.01
2019-03-06T06:32:34.960Z,997.05
2019-03-06T06:33:34.861Z,997.02
2019-03-06T06:34:34.969Z,997.00
2019-03-06T06:35:34.747Z,997.01
2019-03-06T06:36:34.746Z,997.06
2019-03-06T06:37:34.697Z,997.00
2019-03-06T06:38:34.772Z,997.00
2019-03-06T06:39:34.639Z,996.98
2019-03-06T06:40:35.748Z,997.01
2019-03-06T06:41:34.571Z,997.01
2019-03-06T06:42:34.546Z,996.99
2019-03-06T06:43:34.666Z,996.95
2019-03-06T06:44:34.484Z,996.91
2019-03-06T06:45:34.452Z,996.91
2019-03-06T06:46:34.580Z,996.86
2019-03-06T06:47:34.395Z,996.78
2019-03-06T06:48:34.341Z,996.86
2019-03-06T06:49:34.390Z,996.81
2019-03-06T06:50:34.366Z,996.80
2019-03-06T06:51:34.255Z,996.74
2019-03-06T06:52:34.230Z,996.76
2019-03-06T06:53:34.397Z,996.77
2019-03-06T06:54:34.231Z,996.72
2019-03-06T06:55:34.138Z,996.74
2019-03-06T06:56:34.128Z,996.68
2019-03-06T06:57:34.101Z,996.67
2019-03-06T06:58:34.057Z,996.69
2019-03-06T06:59:34.029Z,996.66
2019-03-06T07:00:33.999Z,996.67
2019-03-06T07:01:34.133Z,996.59
2019-03-06T07:02:33.940Z,996.56
2019-03-06T07:03:33.937Z,996.56
2019-03-06T07:04:34.102Z,996.54
2019-03-06T07:05:33.861Z,996.53
2019-03-06T07:06:33.994Z,996.49
2019-03-06T07:07:33.818Z,996.49
2019-03-06T07:08:33.912Z,996.46
2019-03-06T07:09:33.752Z,996.49
2019-03-06T07:10:33.885Z,996.48
2019-03-06T07:11:33.692Z,996.45
2019-03-06T07:12:33.864Z,996.41
2019-03-06T07:13:33.587Z,996.36
2019-03-06T07:14:33.748Z,996.35
2019-03-06T07:15:33.559Z,996.36
2019-03-06T07:16:33.632Z,996.32
2019-03-06T07:17:33.497Z,996.33
2019-03-06T07:18:33.436Z,996.31
2019-03-06T07:19:33.542Z,996.26
2019-03-06T07:20:33.386Z,996.30
2019-03-06T07:21:33.567Z,996.27
2019-03-06T07:22:33.316Z,996.23
2019-03-06T07:23:33.494Z,996.25
2019-03-06T07:24:33.273Z,996.20
2019-03-06T07:25:33.463Z,996.23
2019-03-06T07:26:33.261Z,996.19
2019-03-06T07:27:33.566Z,996.16
2019-03-06T07:28:33.171Z,996.18
2019-03-06T07:29:33.305Z,996.20
2019-03-06T07:30:33.135Z,996.13
2019-03-06T07:31:39.790Z,996.11
2019-03-06T07:32:33.012Z,996.13
2019-03-06T07:33:33.021Z,996.12
2019-03-06T07:34:32.954Z,996.11
2019-03-06T07:35:32.920Z,996.12
2019-03-06T07:36:32.911Z,996.14
2019-03-06T07:37:32.863Z,996.10
2019-03-06T07:38:32.828Z,996.02
2019-03-06T07:39:32.811Z,996.04
2019-03-06T07:40:32.820Z,996.03
2019-03-06T07:41:32.751Z,996.08
2019-03-06T07:42:32.767Z,996.02
2019-03-06T07:43:32.717Z,996.03
2019-03-06T07:44:32.678Z,996.05
2019-03-06T07:45:32.640Z,996.01
2019-03-06T07:46:32.732Z,996.06
2019-03-06T07:47:32.587Z,996.06
2019-03-06T07:48:32.527Z,996.07
2019-03-06T07:49:32.490Z,996.11
2019-03-06T07:50:32.499Z,996.06
2019-03-06T07:51:32.468Z,996.10
2019-03-06T07:52:32.531Z,996.09
2019-03-06T07:53:32.422Z,996.08
2019-03-06T07:54:32.350Z,996.11
2019-03-06T07:55:32.322Z,996.11
2019-03-06T07:56:32.299Z,996.09
2019-03-06T07:57:32.282Z,996.08
2019-03-06T07:58:32.271Z,996.09
2019-03-06T07:59:33.318Z,996.06
2019-03-06T08:00:32.170Z,996.04
2019-03-06T08:01:32.168Z,996.06
2019-03-06T08:02:33.246Z,996.06
2019-03-06T08:03:32.084Z,995.98
2019-03-06T08:04:32.103Z,996.01
2019-03-06T08:05:32.033Z,995.97
2019-03-06T08:06:31.991Z,995.96
2019-03-06T08:07:31.975Z,995.99
2019-03-06T08:08:31.914Z,995.94
2019-03-06T08:09:32.047Z,995.99
2019-03-06T08:10:31.865Z,995.97
2019-03-06T08:11:31.854Z,996.00
2019-03-06T08:12:31.927Z,995.97
2019-03-06T08:13:31.800Z,996.03
2019-03-06T08:14:31.742Z,995.92
2019-03-06T08:15:31.710Z,995.97
2019-03-06T08:16:31.693Z,995.91
2019-03-06T08:17:31.778Z,995.89
2019-03-06T08:18:31.623Z,995.90
2019-03-06T08:19:31.613Z,995.87
2019-03-06T08:20:31.555Z,995.84
2019-03-06T08:21:31.564Z,995.85
2019-03-06T08:22:31.516Z,995.83
2019-03-06T08:23:31.489Z,995.87
2019-03-06T08:24:31.451Z,995.88
2019-03-06T08:25:31.406Z,995.81
2019-03-06T08:26:31.393Z,995.81
2019-03-06T08:27:31.357Z,995.76
2019-03-06T08:28:31.321Z,995.74
2019-03-06T08:29:31.286Z,995.72
2019-03-06T08:30:31.291Z,995.73
2019-03-06T08:31:31.250Z,995.66
2019-03-06T08:32:31.212Z,995.64
2019-03-06T08:33:31.403Z,995.61
2019-03-06T08:34:31.161Z,995.60
2019-03-06T08:35:31.143Z,995.58
2019-03-06T08:36:31.169Z,995.57
2019-03-06T08:37:31.134Z,995.53
2019-03-06T08:38:31.073Z,995.56
2019-03-06T08:39:31.024Z,995.54
2019-03-06T08:40:30.994Z,995.50
2019-03-06T08:41:31.035Z,995.50
2019-03-06T08:42:32.575Z,995.52
2019-03-06T08:43:30.924Z,995.51
2019-03-06T08:44:30.847Z,995.48
2019-03-06T08:45:30.817Z,995.45
2019-03-06T08:46:30.792Z,995.44
2019-03-06T08:47:30.755Z,995.39
2019-03-06T08:48:30.753Z,995.41
2019-03-06T08:49:30.686Z,995.34
2019-03-06T08:50:30.680Z,995.35
2019-03-06T08:51:30.648Z,995.39
2019-03-06T08:52:30.603Z,995.33
2019-03-06T08:53:30.563Z,995.37
2019-03-06T08:54:30.545Z,995.33
2019-03-06T08:55:30.509Z,995.29
2019-03-06T08:56:30.501Z,995.26
2019-03-06T08:57:30.458Z,995.30
2019-03-06T08:58:30.537Z,995.22
2019-03-06T08:59:30.384Z,995.24
2019-03-06T09:00:30.618Z,995.19
2019-03-06T09:01:30.357Z,995.13
2019-03-06T09:02:30.297Z,995.17
2019-03-06T09:03:30.261Z,995.15
2019-03-06T09:04:30.247Z,995.13
2019-03-06T09:05:31.015Z,995.09
2019-03-06T09:06:30.199Z,995.10
2019-03-06T09:07:30.171Z,995.08
2019-03-06T09:08:30.175Z,995.07
2019-03-06T09:09:30.257Z,995.07
2019-03-06T09:10:30.100Z,995.05
2019-03-06T09:11:30.139Z,995.13
2019-03-06T09:12:30.068Z,995.18
2019-03-06T09:13:30.107Z,995.16
2019-03-06T09:14:29.996Z,995.12
2019-03-06T09:15:31.066Z,995.17
2019-03-06T09:16:29.908Z,995.14
2019-03-06T09:17:29.962Z,995.13
2019-03-06T09:18:29.841Z,995.11
2019-03-06T09:19:31.951Z,995.16
2019-03-06T09:20:37.026Z,995.07
2019-03-06T09:21:29.763Z,995.08
2019-03-06T09:22:29.796Z,995.06
2019-03-06T09:23:29.770Z,994.99
2019-03-06T09:24:29.636Z,995.00
2019-03-06T09:25:29.663Z,994.96
2019-03-06T09:26:29.613Z,994.96
2019-03-06T09:27:29.695Z,994.89
2019-03-06T09:28:29.523Z,994.83
2019-03-06T09:29:31.587Z,994.87
2019-03-06T09:30:29.459Z,994.85
2019-03-06T09:31:30.533Z,994.74
2019-03-06T09:32:29.441Z,994.84
2019-03-06T09:33:29.351Z,994.80
2019-03-06T09:34:29.366Z,994.78
2019-03-06T09:35:29.440Z,994.76
2019-03-06T09:36:29.343Z,994.73
2019-03-06T09:37:29.354Z,994.76
2019-03-06T09:38:29.208Z,994.71
2019-03-06T09:39:29.379Z,994.79
2019-03-06T09:40:29.161Z,994.70
2019-03-06T09:41:29.304Z,994.63
2019-03-06T09:42:29.096Z,994.57
2019-03-06T09:43:29.186Z,994.62
2019-03-06T09:44:29.073Z,994.55
2019-03-06T09:45:29.103Z,994.50
2019-03-06T09:46:29.015Z,994.48
2019-03-06T09:47:29.139Z,994.44
2019-03-06T09:48:28.944Z,994.40
2019-03-06T09:49:29.018Z,994.45
2019-03-06T09:50:28.927Z,994.38
2019-03-06T09:51:28.830Z,994.26
2019-03-06T09:52:28.998Z,994.33
2019-03-06T09:53:28.761Z,994.25
2019-03-06T09:54:28.852Z,994.27
2019-03-06T09:55:28.699Z,994.28
2019-03-06T09:56:28.671Z,994.22
2019-03-06T09:57:28.641Z,994.25
2019-03-06T09:58:35.776Z,994.22
2019-03-06T09:59:28.579Z,994.19
2019-03-06T10:00:28.744Z,994.06
2019-03-06T10:01:28.561Z,994.08
2019-03-06T10:02:28.638Z,994.08
2019-03-06T10:03:28.471Z,994.14
2019-03-06T10:04:28.556Z,994.09
2019-03-06T10:05:28.402Z,994.11
2019-03-06T10:06:30.505Z,994.06
2019-03-06T10:07:28.354Z,994.11
2019-03-06T10:08:30.420Z,994.04
2019-03-06T10:09:28.264Z,994.02
2019-03-06T10:10:28.399Z,994.01
2019-03-06T10:11:28.259Z,993.98
2019-03-06T10:12:36.280Z,993.97
2019-03-06T10:13:28.220Z,993.96
2019-03-06T10:14:29.350Z,993.98
2019-03-06T10:15:28.095Z,993.91
2019-03-06T10:16:30.274Z,993.87
2019-03-06T10:17:30.130Z,993.82
2019-03-06T10:18:28.124Z,993.76
2019-03-06T10:19:29.548Z,993.71
2019-03-06T10:20:30.104Z,993.73
2019-03-06T10:21:27.983Z,993.72
2019-03-06T10:22:28.058Z,993.64
2019-03-06T10:23:27.862Z,993.67
2019-03-06T10:24:34.632Z,993.64
2019-03-06T10:25:30.502Z,993.62
2019-03-06T10:26:34.734Z,993.63
2019-03-06T10:27:27.759Z,993.64
2019-03-06T10:28:28.927Z,993.52
2019-03-06T10:29:27.773Z,993.46
2019-03-06T10:30:27.811Z,993.53
2019-03-06T10:31:27.621Z,993.47
2019-03-06T10:32:28.794Z,993.48
2019-03-06T10:33:27.584Z,993.42
2019-03-06T10:34:29.576Z,993.46
2019-03-06T10:35:27.505Z,993.45
2019-03-06T10:36:29.618Z,993.37
2019-03-06T10:37:27.439Z,993.38
2019-03-06T10:38:35.133Z,993.30
2019-03-06T10:39:27.381Z,993.28
2019-03-06T10:40:34.216Z,993.31
2019-03-06T10:41:27.316Z,993.34
2019-03-06T10:42:36.185Z,993.40
2019-03-06T10:43:27.271Z,993.34
2019-03-06T10:44:29.869Z,993.39
2019-03-06T10:45:27.223Z,993.30
2019-03-06T10:46:29.264Z,993.35
2019-03-06T10:47:27.191Z,993.35
2019-03-06T10:48:27.217Z,993.34
2019-03-06T10:49:27.074Z,993.35
2019-03-06T10:50:41.733Z,993.38
2019-03-06T10:51:27.023Z,993.38
2019-03-06T10:52:27.056Z,993.28
2019-03-06T10:53:26.991Z,993.36
2019-03-06T10:54:33.721Z,993.45
2019-03-06T10:55:26.922Z,993.40
2019-03-06T10:56:26.968Z,993.43
2019-03-06T10:57:26.851Z,993.48
2019-03-06T10:58:26.883Z,993.41
2019-03-06T10:59:26.792Z,993.34
2019-03-06T11:00:26.902Z,993.39
2019-03-06T11:01:26.737Z,993.31
2019-03-06T11:02:26.724Z,993.34
2019-03-06T11:03:26.662Z,993.30
2019-03-06T11:04:26.720Z,993.37
2019-03-06T11:05:26.624Z,993.31
2019-03-06T11:06:28.678Z,993.38
2019-03-06T11:07:26.573Z,993.27
2019-03-06T11:08:26.705Z,993.28
2019-03-06T11:09:26.514Z,993.21
2019-03-06T11:10:26.472Z,993.21
2019-03-06T11:11:26.477Z,993.18
2019-03-06T11:12:26.404Z,993.15
2019-03-06T11:13:26.435Z,993.19
2019-03-06T11:14:26.353Z,993.16
2019-03-06T11:15:26.340Z,993.11
2019-03-06T11:16:26.345Z,993.09
2019-03-06T11:17:26.411Z,993.07
2019-03-06T11:18:26.244Z,993.09
2019-03-06T11:19:26.339Z,993.07
2019-03-06T11:20:26.177Z,993.06
2019-03-06T11:21:26.233Z,993.14
2019-03-06T11:22:26.095Z,993.01
2019-03-06T11:23:33.726Z,993.01
2019-03-06T11:24:26.043Z,993.06
2019-03-06T11:25:26.010Z,993.01
2019-03-06T11:26:26.081Z,992.94
2019-03-06T11:27:25.969Z,992.97
2019-03-06T11:28:28.021Z,992.98
2019-03-06T11:29:25.938Z,992.92
2019-03-06T11:30:26.044Z,992.92
2019-03-06T11:31:25.843Z,992.91
2019-03-06T11:32:26.938Z,992.88
2019-03-06T11:33:25.774Z,992.87
2019-03-06T11:34:25.762Z,992.90
2019-03-06T11:35:25.729Z,992.83
2019-03-06T11:36:25.868Z,992.85
2019-03-06T11:37:25.721Z,992.84
2019-03-06T11:38:25.630Z,992.80
2019-03-06T11:39:25.793Z,992.78
2019-03-06T11:40:25.588Z,992.81
2019-03-06T11:41:25.703Z,992.74
2019-03-06T11:42:25.554Z,992.78
2019-03-06T11:43:25.520Z,992.73
2019-03-06T11:44:25.472Z,992.78
2019-03-06T11:45:25.418Z,992.76
2019-03-06T11:46:25.391Z,992.75
2019-03-06T11:47:25.392Z,992.73
2019-03-06T11:48:25.338Z,992.68
2019-03-06T11:49:25.324Z,992.67
2019-03-06T11:50:25.287Z,992.62
2019-03-06T11:51:25.244Z,992.56
2019-03-06T11:52:25.224Z,992.57
2019-03-06T11:53:25.316Z,992.54
2019-03-06T11:54:25.158Z,992.53
2019-03-06T11:55:25.191Z,992.45
2019-03-06T11:56:25.181Z,992.41
2019-03-06T11:57:25.129Z,992.37
2019-03-06T11:58:25.067Z,992.38
2019-03-06T11:59:25.129Z,992.37
2019-03-06T12:00:25.058Z,992.37
2019-03-06T12:01:25.025Z,992.36
2019-03-06T12:02:24.951Z,992.32
2019-03-06T12:03:24.957Z,992.26
2019-03-06T12:04:24.915Z,992.25
2019-03-06T12:05:24.843Z,992.23
2019-03-06T12:06:24.856Z,992.20
2019-03-06T12:07:24.770Z,992.08
2019-03-06T12:08:24.952Z,992.03
2019-03-06T12:09:24.706Z,992.04
2019-03-06T12:10:24.816Z,992.08
2019-03-06T12:11:24.639Z,992.08
2019-03-06T12:12:24.622Z,992.06
2019-03-06T12:13:24.738Z,992.06
2019-03-06T12:14:24.574Z,992.07
2019-03-06T12:15:24.655Z,992.02
2019-03-06T12:16:24.498Z,991.96
2019-03-06T12:17:24.553Z,991.99
2019-03-06T12:18:24.443Z,992.01
2019-03-06T12:19:24.414Z,991.87
2019-03-06T12:20:24.503Z,991.86
2019-03-06T12:21:24.360Z,991.77
2019-03-06T12:22:24.353Z,991.77
2019-03-06T12:23:24.301Z,991.69
2019-03-06T12:24:24.402Z,991.64
2019-03-06T12:25:24.252Z,991.60
2019-03-06T12:26:24.344Z,991.66
2019-03-06T12:27:24.206Z,991.61
2019-03-06T12:28:24.349Z,991.55
2019-03-06T12:29:24.386Z,991.61
2019-03-06T12:30:24.102Z,991.53
2019-03-06T12:31:24.073Z,991.50
2019-03-06T12:32:24.036Z,991.51
2019-03-06T12:33:24.009Z,991.54
2019-03-06T12:34:23.981Z,991.51
2019-03-06T12:35:23.960Z,991.46
2019-03-06T12:36:23.944Z,991.42
2019-03-06T12:37:23.995Z,991.41
2019-03-06T12:38:23.871Z,991.40
2019-03-06T12:39:23.862Z,991.37
2019-03-06T12:40:23.820Z,991.42
2019-03-06T12:41:23.793Z,991.35
2019-03-06T12:42:24.952Z,991.35
2019-03-06T12:43:23.715Z,991.36
2019-03-06T12:44:23.846Z,991.33
2019-03-06T12:45:23.698Z,991.36
2019-03-06T12:46:24.329Z,991.33
2019-03-06T12:47:23.597Z,991.35
2019-03-06T12:48:23.577Z,991.32
2019-03-06T12:49:23.552Z,991.35
2019-03-06T12:50:23.521Z,991.30
2019-03-06T12:51:23.496Z,991.26
2019-03-06T12:52:23.481Z,991.27
2019-03-06T12:53:23.474Z,991.19
2019-03-06T12:54:23.392Z,991.16
2019-03-06T12:55:23.385Z,991.17
2019-03-06T12:56:23.517Z,991.14
2019-03-06T12:57:23.304Z,991.11
2019-03-06T12:58:23.306Z,991.10
2019-03-06T12:59:23.257Z,991.11
2019-03-06T13:00:23.321Z,991.08
2019-03-06T13:01:23.225Z,991.00
2019-03-06T13:02:23.330Z,991.00
2019-03-06T13:03:23.129Z,990.98
2019-03-06T13:04:23.134Z,990.97
2019-03-06T13:05:23.181Z,990.97
2019-03-06T13:07:23.041Z,990.90
2019-03-06T13:07:38.799Z,990.93
2019-03-06T13:08:23.182Z,990.91
2019-03-06T13:09:22.956Z,990.89
2019-03-06T13:10:23.153Z,990.90
2019-03-06T13:11:22.926Z,990.86
2019-03-06T13:12:22.994Z,990.84
2019-03-06T13:13:22.860Z,990.81
2019-03-06T13:14:23.015Z,990.78
2019-03-06T13:15:22.797Z,990.78
2019-03-06T13:16:22.965Z,990.72
2019-03-06T13:17:22.765Z,990.68
2019-03-06T13:18:22.719Z,990.67
2019-03-06T13:19:22.665Z,990.64
2019-03-06T13:20:22.842Z,990.63
2019-03-06T13:21:22.636Z,990.62
2019-03-06T13:22:24.133Z,990.63
2019-03-06T13:23:22.675Z,990.64
2019-03-06T13:24:22.527Z,990.59
2019-03-06T13:25:22.516Z,990.61
2019-03-06T13:26:23.611Z,990.61
2019-03-06T13:27:22.475Z,990.56
2019-03-06T13:28:22.520Z,990.58
2019-03-06T13:29:22.379Z,990.55
2019-03-06T13:30:22.460Z,990.53
2019-03-06T13:31:22.318Z,990.48
2019-03-06T13:32:22.309Z,990.48
2019-03-06T13:33:22.342Z,990.42
2019-03-06T13:34:22.222Z,990.49
2019-03-06T13:35:22.217Z,990.49